Time;durP1;ratioP1;P1;durP2;ratioP2;P2;SDS_P1;SDS_P2;PMS_P1;PMS_P2;Temp;Humidity;BMP_temperature;BMP_pressure;BME280_temperature;BME280_humidity;BME280_pressure;Samples;Min_cycle;Max_cycle;Signal;HPM_P1;HPM_P2
2022/01/04 00:02:21;;;;;;;14.13;6.00;;;;;;;20.96;39.86;100228.03;5112478;27;20054;-69
2022/01/04 00:04:46;;;;;;;16.03;6.23;;;;;;;20.47;40.31;100223.91;5095538;28;20020;-69
2022/01/04 00:07:11;;;;;;;11.57;5.07;;;;;;;20.15;41.82;100219.63;5123516;27;20023;-69
2022/01/04 00:09:41;;;;;;;15.10;5.83;;;;;;;21.24;38.74;100212.97;5112934;27;20027;-69
2022/01/04 00:14:52;;;;;;;11.37;5.93;;;;;;;19.55;42.42;100214.28;5111168;28;20552;-69
2022/01/04 00:17:18;;;;;;;15.57;5.40;;;;;;;20.74;40.45;100202.81;5122685;27;20039;-69
2022/01/04 00:19:43;;;;;;;11.77;5.37;;;;;;;20.27;40.82;100190.66;5110444;27;20055;-69
2022/01/04 00:22:08;;;;;;;18.57;5.63;;;;;;;21.35;38.56;100173.28;5130432;27;20031;-69
2022/01/04 00:24:36;;;;;;;14.53;6.27;;;;;;;20.25;40.24;100181.91;5112578;27;20038;-69
2022/01/04 00:27:02;;;;;;;17.57;6.37;;;;;;;20.06;41.24;100171.56;5112262;27;20114;-69
2022/01/04 00:29:27;;;;;;;13.10;5.70;;;;;;;20.31;41.10;100165.63;5113331;27;20042;-69
2022/01/04 00:31:53;;;;;;;14.90;5.60;;;;;;;20.29;40.65;100167.53;5111975;27;20412;-69
2022/01/04 00:34:18;;;;;;;10.47;5.77;;;;;;;20.17;41.46;100169.13;5121499;27;20058;-69
2022/01/04 00:36:44;;;;;;;15.80;5.13;;;;;;;20.33;40.57;100154.00;5097837;27;20084;-69
2022/01/04 00:39:09;;;;;;;13.50;5.53;;;;;;;20.44;39.82;100153.31;5129635;27;20463;-69
2022/01/04 00:41:35;;;;;;;13.60;6.77;;;;;;;19.65;41.53;100157.16;5112703;27;20077;-69
2022/01/04 00:44:00;;;;;;;8.80;5.33;;;;;;;20.16;41.33;100156.81;5111105;27;20084;-69
2022/01/04 00:46:26;;;;;;;16.00;5.83;;;;;;;20.36;40.61;100150.28;5112082;27;20076;-69
2022/01/04 00:49:09;;;;;;;15.03;6.27;;;;;;;18.82;43.50;100145.00;5111475;27;20542;-69
2022/01/04 00:51:35;;;;;;;10.70;5.90;;;;;;;19.64;41.89;100134.22;5129881;27;20022;-69
2022/01/04 00:54:01;;;;;;;12.80;5.47;;;;;;;20.44;40.70;100134.75;5112026;28;20454;-69
2022/01/04 00:56:26;;;;;;;14.17;5.70;;;;;;;20.77;39.26;100128.28;5111860;28;20029;-69
2022/01/04 00:58:52;;;;;;;13.00;5.77;;;;;;;20.63;40.03;100128.25;5111688;27;20016;-69
2022/01/04 01:01:18;;;;;;;17.57;6.03;;;;;;;20.60;39.83;100131.13;5112160;28;20339;-69
2022/01/04 01:03:43;;;;;;;15.70;6.00;;;;;;;19.82;42.10;100121.72;5125028;27;20024;-69
2022/01/04 01:06:09;;;;;;;15.63;5.80;;;;;;;20.58;40.47;100119.72;5113448;28;20535;-69
2022/01/04 01:08:35;;;;;;;14.47;6.20;;;;;;;20.77;39.37;100120.31;5130964;28;20047;-69
2022/01/04 01:11:01;;;;;;;11.20;5.83;;;;;;;20.82;39.11;100118.19;5130115;28;20187;-69
2022/01/04 01:13:26;;;;;;;10.27;6.17;;;;;;;19.78;41.23;100109.56;5110553;28;20024;-69
2022/01/04 01:15:51;;;;;;;17.87;6.27;;;;;;;20.53;40.04;100108.56;5111930;28;20062;-69
2022/01/04 01:18:18;;;;;;;11.97;6.40;;;;;;;20.42;39.80;100103.94;5130634;28;20039;-69
2022/01/04 01:20:46;;;;;;;13.07;4.80;;;;;;;20.81;39.68;100100.59;5092145;28;20028;-69
2022/01/04 01:23:12;;;;;;;14.43;6.20;;;;;;;20.81;39.23;100100.59;5091146;28;20030;-69
2022/01/04 01:25:37;;;;;;;16.23;7.10;;;;;;;20.41;40.42;100097.75;5120948;28;20443;-69
2022/01/04 01:28:03;;;;;;;14.30;5.60;;;;;;;20.30;40.19;100094.94;5110003;28;20142;-69
2022/01/04 01:30:30;;;;;;;14.60;5.87;;;;;;;19.31;42.14;100095.50;5112287;28;20034;-69
2022/01/04 01:32:56;;;;;;;13.47;6.10;;;;;;;19.55;41.46;100097.66;5130105;28;20522;-69
2022/01/04 01:35:21;;;;;;;13.87;5.80;;;;;;;19.93;40.86;100087.44;5092052;28;20020;-69
2022/01/04 01:37:46;;;;;;;12.37;6.87;;;;;;;20.22;40.96;100081.28;5107288;28;20058;-69
2022/01/04 01:40:12;;;;;;;10.23;5.77;;;;;;;18.86;42.80;100083.94;5110266;28;20019;-70
2022/01/04 01:42:39;;;;;;;11.83;6.67;;;;;;;19.15;43.06;100090.25;5130331;28;20039;-69
2022/01/04 01:45:05;;;;;;;17.30;6.13;;;;;;;20.29;40.41;100078.16;5130238;28;20019;-69
2022/01/04 01:47:31;;;;;;;11.70;6.20;;;;;;;19.81;40.66;100073.13;5129396;28;20035;-69
2022/01/04 01:49:56;;;;;;;13.23;6.37;;;;;;;18.99;43.19;100069.09;5110755;27;20027;-69
2022/01/04 01:52:22;;;;;;;12.60;6.60;;;;;;;19.72;41.35;100051.59;5115367;27;20027;-69
2022/01/04 01:54:48;;;;;;;14.70;7.40;;;;;;;19.40;42.87;100049.94;5133474;27;20080;-69
2022/01/04 01:57:13;;;;;;;25.47;8.13;;;;;;;20.27;40.11;100053.53;5134273;27;20034;-69
2022/01/04 01:59:39;;;;;;;15.60;7.27;;;;;;;19.82;41.11;100052.78;5115329;27;20019;-69
2022/01/04 02:02:05;;;;;;;14.30;7.90;;;;;;;20.05;40.56;100048.72;5114507;27;20019;-69
2022/01/04 02:04:30;;;;;;;14.50;7.47;;;;;;;20.38;39.89;100050.19;5134023;27;20038;-69
2022/01/04 02:06:56;;;;;;;14.60;8.00;;;;;;;20.98;38.89;100040.19;5123141;27;20019;-69
2022/01/04 02:09:21;;;;;;;14.37;8.60;;;;;;;19.19;42.68;100049.38;5106072;27;20493;-69
2022/01/04 02:11:48;;;;;;;15.33;7.37;;;;;;;19.81;41.98;100036.03;5115810;27;20187;-70
2022/01/04 02:14:14;;;;;;;12.73;6.97;;;;;;;21.34;38.47;100023.56;5133732;27;20075;-69
2022/01/04 02:16:39;;;;;;;18.07;8.80;;;;;;;20.41;40.58;100027.91;5133605;27;20486;-69
2022/01/04 02:19:07;;;;;;;18.50;8.73;;;;;;;20.08;41.00;100021.97;5114488;27;20028;-69
2022/01/04 02:21:34;;;;;;;12.00;7.40;;;;;;;20.03;41.06;100023.22;5133546;27;20150;-69
2022/01/04 02:24:00;;;;;;;15.80;8.23;;;;;;;20.47;40.13;100012.44;5110602;27;20499;-69
2022/01/04 02:26:26;;;;;;;17.63;7.47;;;;;;;21.16;38.72;100009.72;5114841;27;20053;-69
2022/01/04 02:28:51;;;;;;;17.80;7.70;;;;;;;19.52;41.38;100019.19;5133559;27;20080;-69
2022/01/04 02:31:18;;;;;;;18.60;8.10;;;;;;;19.66;41.15;100016.56;5114233;27;20117;-69
2022/01/04 02:33:43;;;;;;;17.07;8.00;;;;;;;19.97;41.49;100004.09;5115462;27;20038;-69
2022/01/04 02:36:08;;;;;;;16.10;7.67;;;;;;;19.57;41.24;100005.69;5130354;27;20015;-69
2022/01/04 02:38:34;;;;;;;13.97;8.13;;;;;;;20.53;39.61;99986.47;5097870;27;20015;-69
2022/01/04 02:41:00;;;;;;;19.00;8.33;;;;;;;20.21;40.17;99978.75;5133075;27;20025;-69
2022/01/04 02:43:26;;;;;;;15.37;7.23;;;;;;;19.86;40.72;99995.13;5114698;27;20095;-69
2022/01/04 02:45:51;;;;;;;14.83;8.00;;;;;;;19.45;42.56;99986.94;5132515;27;20019;-69
2022/01/04 02:48:16;;;;;;;12.80;7.20;;;;;;;18.95;42.50;99978.38;5113283;27;20039;-69
2022/01/04 02:50:42;;;;;;;14.53;8.70;;;;;;;20.25;40.31;99964.34;5132343;27;20146;-70
2022/01/04 02:53:07;;;;;;;12.93;8.17;;;;;;;20.85;38.81;99968.44;5114208;27;20027;-69
2022/01/04 02:55:33;;;;;;;13.70;7.73;;;;;;;21.10;38.18;99967.66;5114583;27;20054;-69
2022/01/04 02:57:58;;;;;;;16.00;8.80;;;;;;;22.09;36.54;99955.50;5106712;27;20031;-69
2022/01/04 03:00:25;;;;;;;19.77;8.80;;;;;;;21.25;37.59;99962.22;5104963;28;20139;-69
2022/01/04 03:02:51;;;;;;;10.43;7.47;;;;;;;20.67;39.21;99966.00;5120017;27;20331;-69
2022/01/04 03:05:17;;;;;;;16.97;7.23;;;;;;;20.42;39.99;99956.16;5113462;27;20092;-69
2022/01/04 03:07:43;;;;;;;16.63;8.00;;;;;;;20.45;39.54;99958.59;5132010;27;20339;-69
2022/01/04 03:10:08;;;;;;;12.93;7.37;;;;;;;21.22;37.58;99951.81;5113820;27;20027;-69
2022/01/04 03:12:34;;;;;;;16.20;8.33;;;;;;;19.40;41.34;99951.03;5113602;27;20447;-69
2022/01/04 03:15:00;;;;;;;15.60;8.40;;;;;;;19.52;41.09;99941.50;5114147;27;20039;-69
2022/01/04 03:17:26;;;;;;;12.83;7.47;;;;;;;20.65;39.27;99932.56;5109115;27;20080;-69
2022/01/04 03:19:51;;;;;;;17.90;9.50;;;;;;;20.60;39.39;99932.03;5113019;27;20067;-69
2022/01/04 03:22:17;;;;;;;14.57;7.10;;;;;;;20.86;38.47;99924.16;5113943;27;20445;-69
2022/01/04 03:24:42;;;;;;;14.27;6.90;;;;;;;20.44;39.12;99922.44;5114318;27;20487;-69
2022/01/04 03:27:07;;;;;;;11.50;7.10;;;;;;;20.27;39.87;99904.94;5131091;27;20083;-70
2022/01/04 03:29:33;;;;;;;17.07;8.07;;;;;;;20.15;40.52;99906.59;5110383;27;20474;-69
2022/01/04 03:31:58;;;;;;;17.23;7.47;;;;;;;20.73;38.54;99890.47;5109771;27;20031;-69
2022/01/04 03:34:25;;;;;;;21.23;8.63;;;;;;;19.77;40.16;99901.91;5112414;27;20067;-69
2022/01/04 03:36:50;;;;;;;17.47;7.43;;;;;;;19.90;40.55;99904.66;5093233;28;20027;-69
2022/01/04 03:39:16;;;;;;;18.87;8.80;;;;;;;19.64;41.74;99891.22;5126802;27;20069;-69
2022/01/04 03:41:44;;;;;;;16.17;8.77;;;;;;;20.12;39.95;99874.94;5113254;27;20023;-69
2022/01/04 03:44:16;;;;;;;15.93;7.87;;;;;;;20.12;40.01;99872.28;5112378;27;20072;-69
2022/01/04 03:46:42;;;;;;;14.10;7.68;;;;;;;20.26;39.81;99881.16;5094748;28;20118;-69
2022/01/04 03:49:08;;;;;;;15.67;6.77;;;;;;;21.78;36.64;99867.25;5100481;28;20165;-69
2022/01/04 03:51:33;;;;;;;12.13;7.50;;;;;;;21.76;37.34;99863.88;5093448;28;20168;-69
2022/01/04 03:53:58;;;;;;;14.43;6.60;;;;;;;21.34;36.83;99865.94;5121259;27;20034;-69
2022/01/04 03:56:24;;;;;;;15.53;7.57;;;;;;;20.93;38.31;99864.34;5130974;27;20030;-69
2022/01/04 03:58:49;;;;;;;14.17;7.07;;;;;;;20.97;37.88;99852.56;5131381;27;20019;-69
2022/01/04 04:01:14;;;;;;;15.37;7.40;;;;;;;20.05;40.02;99847.13;5112521;27;20404;-69
2022/01/04 04:03:40;;;;;;;11.43;6.93;;;;;;;19.27;41.88;99852.91;5112403;27;20474;-69
2022/01/04 04:06:05;;;;;;;13.20;6.70;;;;;;;20.10;39.75;99845.03;5112265;27;20095;-69
2022/01/04 04:08:31;;;;;;;13.27;6.47;;;;;;;19.48;41.72;99848.94;5112285;27;20110;-69
2022/01/04 04:10:56;;;;;;;15.83;6.93;;;;;;;19.35;41.95;99845.34;5113381;27;20023;-69
2022/01/04 04:13:22;;;;;;;12.03;6.30;;;;;;;19.95;41.11;99836.28;5130829;27;20267;-69
2022/01/04 04:15:47;;;;;;;12.67;6.53;;;;;;;19.65;42.29;99839.91;5130516;27;20027;-68
2022/01/04 04:18:13;;;;;;;13.17;6.50;;;;;;;19.18;42.26;99845.53;5112131;27;20119;-69
2022/01/04 04:20:39;;;;;;;10.53;5.73;;;;;;;19.49;41.81;99832.09;5098680;28;20032;-69
2022/01/04 04:23:06;;;;;;;10.83;6.00;;;;;;;18.81;44.60;99838.84;5107673;27;20046;-69
2022/01/04 04:25:31;;;;;;;13.20;5.97;;;;;;;18.70;43.00;99830.72;5128541;27;20496;-69
2022/01/04 04:27:57;;;;;;;11.20;5.87;;;;;;;19.11;42.49;99830.03;5110772;28;20024;-68
2022/01/04 04:30:22;;;;;;;13.60;6.83;;;;;;;19.72;41.94;99818.31;5108725;27;20054;-68
2022/01/04 04:32:48;;;;;;;12.47;6.47;;;;;;;18.82;44.02;99829.97;5112737;27;20120;-68
2022/01/04 04:35:14;;;;;;;20.13;7.50;;;;;;;18.70;44.12;99821.91;5131188;27;20027;-70
2022/01/04 04:37:39;;;;;;;17.93;7.90;;;;;;;19.10;42.38;99830.13;5111172;27;20114;-68
2022/01/04 04:40:06;;;;;;;16.67;7.57;;;;;;;19.07;42.84;99823.22;5112158;27;20435;-68
2022/01/04 04:42:32;;;;;;;17.73;7.27;;;;;;;18.78;44.55;99811.72;5114322;27;20032;-68
2022/01/04 04:44:57;;;;;;;14.67;7.37;;;;;;;19.52;41.87;99795.72;5102514;27;20284;-68
2022/01/04 04:47:22;;;;;;;13.70;7.63;;;;;;;19.07;42.23;99798.50;5131002;27;20023;-68
2022/01/04 04:49:48;;;;;;;17.23;8.47;;;;;;;19.81;40.94;99794.75;5111382;27;20126;-68
2022/01/04 04:52:13;;;;;;;17.13;7.37;;;;;;;18.60;43.61;99805.72;5112047;27;20110;-68
2022/01/04 04:54:39;;;;;;;15.53;8.17;;;;;;;20.03;40.90;99806.59;5130949;27;20052;-69
2022/01/04 04:57:04;;;;;;;14.20;7.47;;;;;;;19.19;41.89;99789.81;5111603;27;20098;-68
2022/01/04 04:59:30;;;;;;;15.67;8.23;;;;;;;19.60;40.89;99782.84;5111682;28;20027;-68
2022/01/04 05:01:55;;;;;;;19.97;8.90;;;;;;;18.84;42.61;99799.91;5112504;27;20122;-68
2022/01/04 05:04:21;;;;;;;22.83;9.53;;;;;;;19.79;41.80;99793.94;5104801;28;20035;-68
2022/01/04 05:06:46;;;;;;;18.47;9.63;;;;;;;20.33;40.49;99786.91;5117630;27;20023;-68
2022/01/04 05:09:12;;;;;;;18.03;8.13;;;;;;;18.79;43.43;99793.13;5129773;28;20030;-68
2022/01/04 05:11:38;;;;;;;18.67;8.17;;;;;;;20.38;40.42;99784.81;5111847;28;20023;-68
2022/01/04 05:14:03;;;;;;;15.40;8.10;;;;;;;18.81;42.77;99775.31;5111270;28;20031;-68
2022/01/04 05:16:28;;;;;;;19.67;8.83;;;;;;;19.19;42.10;99773.06;5112117;28;20031;-68
2022/01/04 05:18:54;;;;;;;20.27;8.97;;;;;;;20.00;40.59;99759.06;5108397;28;20174;-68
2022/01/04 05:21:19;;;;;;;21.20;8.07;;;;;;;19.50;42.53;99769.34;5111880;28;20038;-68
2022/01/04 05:23:45;;;;;;;17.00;8.67;;;;;;;19.48;41.25;99769.44;5112483;28;20023;-68
2022/01/04 05:26:10;;;;;;;17.03;9.03;;;;;;;18.35;43.26;99778.09;5131117;27;20111;-68
2022/01/04 05:28:36;;;;;;;22.63;8.83;;;;;;;20.28;40.45;99770.50;5135093;27;20505;-68
2022/01/04 05:31:01;;;;;;;17.27;8.10;;;;;;;17.99;45.31;99768.72;5115792;27;20027;-68
2022/01/04 05:33:26;;;;;;;16.43;8.33;;;;;;;18.27;44.61;99759.16;5115348;27;20069;-68
2022/01/04 05:35:53;;;;;;;16.20;7.47;;;;;;;18.81;44.09;99763.91;5134237;27;20041;-68
2022/01/04 05:38:19;;;;;;;16.30;8.47;;;;;;;20.02;41.65;99762.47;5115888;27;20045;-68
2022/01/04 05:40:44;;;;;;;16.77;7.87;;;;;;;19.48;42.18;99753.53;5115284;27;20050;-69
2022/01/04 05:43:10;;;;;;;13.53;7.87;;;;;;;18.93;42.60;99749.94;5114923;27;20455;-68
2022/01/04 05:45:35;;;;;;;11.73;7.03;;;;;;;17.50;46.23;99755.63;5107895;28;20097;-68
2022/01/04 05:48:00;;;;;;;14.67;8.27;;;;;;;18.69;43.92;99759.34;5094426;28;20031;-68
2022/01/04 05:50:26;;;;;;;15.97;7.50;;;;;;;18.09;45.18;99761.97;5109957;27;20031;-68
2022/01/04 05:52:51;;;;;;;14.33;7.63;;;;;;;19.03;43.51;99752.84;5134166;27;20023;-68
2022/01/04 05:55:17;;;;;;;17.60;8.63;;;;;;;19.21;42.35;99761.44;5102121;27;20031;-68
2022/01/04 05:57:42;;;;;;;16.97;8.83;;;;;;;19.81;41.96;99760.28;5133555;27;20080;-68
2022/01/04 06:00:09;;;;;;;18.87;8.47;;;;;;;19.46;41.55;99742.16;5115698;27;20058;-68
2022/01/04 06:02:34;;;;;;;23.13;8.07;;;;;;;19.34;41.55;99740.31;5114961;27;20051;-68
2022/01/04 06:05:00;;;;;;;17.23;8.47;;;;;;;20.14;40.36;99740.41;5134060;27;20440;-68
2022/01/04 06:07:25;;;;;;;18.77;9.17;;;;;;;19.45;42.12;99727.25;5114929;27;20432;-68
2022/01/04 06:09:53;;;;;;;19.87;8.80;;;;;;;19.01;42.78;99727.41;5101259;27;20023;-68
2022/01/04 06:15:10;;;;;;;20.70;9.63;;;;;;;19.19;43.11;99720.94;5087607;27;20066;-68
2022/01/04 06:17:41;;;;;;;22.90;10.37;;;;;;;19.17;42.54;99716.72;5114227;27;20011;-68
2022/01/04 06:20:13;;;;;;;17.27;9.30;;;;;;;18.56;44.14;99719.53;5110376;28;20047;-68
2022/01/04 06:22:39;;;;;;;19.08;9.25;;;;;;;18.82;43.61;99718.78;5110216;28;20035;-68
2022/01/04 06:25:07;;;;;;;16.00;8.47;;;;;;;18.22;45.06;99732.16;5109537;28;20502;-68
2022/01/04 06:27:33;;;;;;;24.23;10.17;;;;;;;18.88;43.83;99724.69;5110160;28;20031;-68
2022/01/04 06:29:59;;;;;;;24.00;10.47;;;;;;;19.41;41.34;99731.03;5110241;28;20031;-68
2022/01/04 06:32:24;;;;;;;26.57;11.33;;;;;;;19.55;42.37;99721.31;5111652;28;20036;-68
2022/01/04 06:34:51;;;;;;;24.03;11.00;;;;;;;18.94;42.77;99711.06;5109885;28;20054;-68
2022/01/04 06:37:17;;;;;;;17.43;9.17;;;;;;;20.00;41.84;99703.34;5110744;28;20031;-68
2022/01/04 06:39:43;;;;;;;27.90;10.23;;;;;;;19.78;40.95;99707.44;5091846;28;20421;-68
2022/01/04 06:42:08;;;;;;;22.43;10.40;;;;;;;19.80;41.33;99687.00;5110716;28;20039;-68
2022/01/04 06:44:34;;;;;;;18.37;10.13;;;;;;;20.27;40.29;99670.63;5099438;28;20068;-68
2022/01/04 06:46:59;;;;;;;20.53;10.50;;;;;;;19.80;41.87;99684.34;5091190;28;20036;-68
2022/01/04 06:49:25;;;;;;;19.33;9.90;;;;;;;18.72;43.83;99685.88;5104964;28;20123;-68
2022/01/04 06:51:50;;;;;;;24.30;10.70;;;;;;;18.33;44.38;99684.75;5108164;28;20023;-68
2022/01/04 06:54:18;;;;;;;21.23;10.20;;;;;;;19.60;42.20;99682.13;5110173;28;20043;-68
2022/01/04 06:56:44;;;;;;;25.37;10.80;;;;;;;19.91;41.26;99680.13;5089033;28;20044;-68
2022/01/04 06:59:10;;;;;;;28.27;10.53;;;;;;;19.94;41.04;99687.88;5100599;28;20340;-68
2022/01/04 07:01:37;;;;;;;22.90;11.60;;;;;;;20.24;40.53;99684.94;5110098;28;20024;-68
2022/01/04 07:04:06;;;;;;;20.13;9.20;;;;;;;20.11;40.81;99676.97;5103986;28;20073;-68
2022/01/04 07:06:32;;;;;;;19.60;10.50;;;;;;;20.69;39.87;99671.25;5097083;28;20027;-68
2022/01/04 07:08:57;;;;;;;17.43;9.03;;;;;;;20.13;40.91;99669.75;5110640;28;20521;-68
2022/01/04 07:11:22;;;;;;;21.47;9.37;;;;;;;19.52;40.97;99664.06;5109931;28;20062;-68
2022/01/04 07:13:48;;;;;;;17.70;8.73;;;;;;;20.93;38.89;99642.09;5104697;28;20039;-68
2022/01/04 07:16:14;;;;;;;18.43;9.70;;;;;;;20.98;38.82;99647.94;5099736;28;20077;-68
2022/01/04 07:18:39;;;;;;;20.30;10.00;;;;;;;20.23;40.10;99645.25;5064443;28;1171281;-68
2022/01/04 07:21:05;;;;;;;20.23;9.73;;;;;;;20.49;39.52;99646.91;5108671;28;20035;-68
2022/01/04 07:23:31;;;;;;;21.97;10.50;;;;;;;18.47;44.11;99650.34;5110618;28;20027;-68
2022/01/04 07:25:57;;;;;;;21.90;10.80;;;;;;;19.73;42.41;99645.91;5109079;28;20023;-68
2022/01/04 07:28:23;;;;;;;19.30;9.50;;;;;;;18.39;44.64;99663.22;5108200;27;20038;-68
2022/01/04 07:30:49;;;;;;;17.57;9.50;;;;;;;19.49;42.05;99651.91;5111127;27;20039;-69
2022/01/04 07:33:17;;;;;;;20.77;9.83;;;;;;;19.31;41.61;99645.13;5109771;28;20039;-68
2022/01/04 07:35:43;;;;;;;21.27;10.27;;;;;;;20.25;40.11;99653.94;5090331;28;20170;-68
2022/01/04 07:38:08;;;;;;;19.57;10.73;;;;;;;19.96;41.20;99667.38;5108913;28;20118;-68
2022/01/04 07:40:34;;;;;;;23.53;10.20;;;;;;;20.02;40.93;99660.81;5110915;28;20106;-68
2022/01/04 07:43:00;;;;;;;21.30;10.13;;;;;;;18.58;43.81;99654.16;5100512;28;20036;-68
2022/01/04 07:45:30;;;;;;;15.97;6.50;;;;;;;18.45;43.25;99664.63;5109390;28;20039;-68
2022/01/04 07:47:56;;;;;;;15.27;7.90;;;;;;;19.12;42.25;99653.44;5105250;28;20078;-68
2022/01/04 07:50:21;;;;;;;17.97;6.23;;;;;;;19.50;41.47;99650.94;5096870;28;20504;-68
2022/01/04 07:52:50;;;;;;;16.00;8.13;;;;;;;20.77;39.84;99649.47;5106050;28;20389;-68
2022/01/04 07:55:16;;;;;;;25.57;10.40;;;;;;;20.63;39.60;99661.88;5110596;28;20051;-68
2022/01/04 07:57:43;;;;;;;30.30;11.67;;;;;;;20.39;40.52;99659.16;5109576;28;20034;-68
2022/01/04 08:00:10;;;;;;;23.30;12.10;;;;;;;20.74;40.11;99660.31;5093922;28;20096;-68
2022/01/04 08:02:35;;;;;;;26.83;13.33;;;;;;;19.99;41.04;99661.91;5105484;28;20045;-68
2022/01/04 08:05:01;;;;;;;29.00;12.53;;;;;;;20.98;39.04;99657.72;5107148;28;20122;-67
2022/01/04 08:07:26;;;;;;;28.00;12.97;;;;;;;21.24;39.05;99661.13;5098460;28;20028;-68
2022/01/04 08:09:52;;;;;;;28.23;13.07;;;;;;;20.33;41.28;99670.16;5105897;28;20081;-68
2022/01/04 08:12:18;;;;;;;27.23;12.67;;;;;;;19.94;42.59;99690.53;5110740;28;20429;-67
2022/01/04 08:14:45;;;;;;;25.13;11.70;;;;;;;19.79;42.19;99679.94;5110719;28;20095;-67
2022/01/04 08:17:11;;;;;;;25.93;13.07;;;;;;;20.12;41.96;99683.97;5110204;28;20427;-68
2022/01/04 08:19:36;;;;;;;13.23;7.43;;;;;;;18.35;42.95;99687.31;5104604;28;20126;-68
2022/01/04 08:22:02;;;;;;;4.63;1.87;;;;;;;17.21;45.41;99689.44;5110093;28;20110;-68
2022/01/04 08:24:28;;;;;;;2.60;1.60;;;;;;;17.44;44.71;99696.91;5110048;28;20551;-68
2022/01/04 08:26:53;;;;;;;4.30;1.60;;;;;;;17.32;44.91;99702.88;5109189;28;20130;-68
2022/01/04 08:29:18;;;;;;;6.30;2.13;;;;;;;19.32;41.59;99689.25;5109427;28;20039;-68
2022/01/04 08:31:44;;;;;;;7.90;3.80;;;;;;;18.51;43.81;99698.66;5109368;28;20027;-68
2022/01/04 08:34:09;;;;;;;10.17;4.80;;;;;;;19.40;42.12;99705.47;5109966;28;20114;-68
2022/01/04 08:36:36;;;;;;;14.20;6.07;;;;;;;19.01;42.81;99720.31;5108148;28;20487;-68
2022/01/04 08:39:03;;;;;;;12.30;6.43;;;;;;;19.65;42.85;99709.19;5103001;28;20463;-68
2022/01/04 08:41:28;;;;;;;18.40;7.90;;;;;;;19.76;41.68;99722.56;5101767;28;20091;-68
2022/01/04 08:43:54;;;;;;;16.03;8.03;;;;;;;18.91;43.92;99721.84;5107534;28;20099;-67
2022/01/04 08:46:20;;;;;;;20.53;8.77;;;;;;;20.42;40.52;99727.94;5102684;28;20039;-68
2022/01/04 08:48:45;;;;;;;23.00;8.80;;;;;;;20.14;41.02;99719.22;5099828;28;20381;-68
2022/01/04 08:51:10;;;;;;;19.53;9.43;;;;;;;19.07;42.64;99727.88;5101082;28;20035;-68
2022/01/04 08:53:36;;;;;;;14.43;7.70;;;;;;;20.66;39.93;99713.91;5102986;28;20027;-68
2022/01/04 08:56:01;;;;;;;17.77;6.47;;;;;;;19.81;41.12;99712.56;5097468;28;20020;-68
2022/01/04 08:58:30;;;;;;;15.20;6.77;;;;;;;19.14;43.14;99701.88;5108542;28;20059;-68
2022/01/04 09:00:56;;;;;;;15.10;6.83;;;;;;;19.08;42.98;99705.75;5109202;28;20030;-68
2022/01/04 09:03:24;;;;;;;12.57;6.23;;;;;;;19.85;41.65;99709.69;5098261;28;20019;-68
2022/01/04 09:05:49;;;;;;;10.40;5.47;;;;;;;20.90;39.61;99699.91;5100950;28;20480;-68
2022/01/04 09:08:15;;;;;;;13.97;5.67;;;;;;;21.13;39.04;99701.75;5091116;28;20031;-68
2022/01/04 09:10:40;;;;;;;10.80;4.30;;;;;;;20.77;39.13;99699.91;5098741;28;20024;-68
2022/01/04 09:13:20;;;;;;;7.73;4.47;;;;;;;20.06;40.74;99700.31;5099438;28;20032;-68
2022/01/04 09:20:55;;;;;;;7.57;3.93;;;;;;;19.75;41.27;99707.63;5121960;28;20457;-68
2022/01/04 09:23:22;;;;;;;7.37;4.17;;;;;;;20.84;39.48;99702.03;5119597;28;20102;-68
2022/01/04 09:25:49;;;;;;;14.03;3.70;;;;;;;20.13;40.37;99714.84;5124949;28;20039;-68
2022/01/04 09:28:16;;;;;;;6.77;2.93;;;;;;;20.04;41.18;99709.31;5106489;28;20031;-68
2022/01/04 09:30:45;;;;;;;8.57;3.17;;;;;;;21.07;38.76;99707.50;5120862;28;20479;-68
2022/01/04 09:33:10;;;;;;;9.77;3.10;;;;;;;21.23;38.26;99701.09;5105430;28;20027;-68
2022/01/04 09:35:36;;;;;;;7.87;2.50;;;;;;;19.65;40.61;99706.53;5130523;28;20516;-68
2022/01/04 09:38:06;;;;;;;9.90;2.57;;;;;;;19.82;40.70;99708.97;5128824;28;20102;-68
2022/01/04 09:40:35;;;;;;;9.13;2.63;;;;;;;21.19;38.87;99695.97;5099898;28;20038;-68
2022/01/04 09:43:02;;;;;;;5.20;2.93;;;;;;;21.67;37.46;99704.97;5099298;28;21636;-68
2022/01/04 09:45:28;;;;;;;6.90;2.30;;;;;;;20.81;38.77;99707.56;5124297;28;20050;-68
2022/01/04 09:47:53;;;;;;;6.27;2.83;;;;;;;21.33;38.03;99702.13;5111224;28;20478;-68
2022/01/04 09:50:19;;;;;;;11.47;2.63;;;;;;;20.81;39.82;99715.53;5111580;28;20019;-68
2022/01/04 09:52:47;;;;;;;9.10;2.47;;;;;;;21.22;38.97;99704.72;5121423;28;20019;-68
2022/01/04 09:55:13;;;;;;;9.87;2.20;;;;;;;21.42;38.44;99717.41;5099671;28;20031;-68
2022/01/04 09:57:40;;;;;;;6.67;2.67;;;;;;;20.92;38.50;99709.44;5130820;28;20388;-68
2022/01/04 10:00:06;;;;;;;11.23;2.67;;;;;;;20.55;39.99;99703.19;5115445;28;20031;-68
2022/01/04 10:02:32;;;;;;;11.90;3.70;;;;;;;21.13;38.63;99704.41;5110396;28;20093;-68
2022/01/04 10:05:15;;;;;;;16.80;3.83;;;;;;;21.23;38.30;99706.41;5106519;28;20027;-68
2022/01/04 10:07:40;;;;;;;9.32;2.97;;;;;;;21.31;38.36;99704.03;5099671;28;20054;-68
2022/01/04 10:10:10;;;;;;;16.47;3.73;;;;;;;21.30;38.67;99705.00;5097642;28;20035;-67
2022/01/04 10:12:51;;;;;;;15.70;3.53;;;;;;;18.94;43.33;99713.72;5128420;27;20106;-68
2022/01/04 10:15:34;;;;;;;10.73;2.53;;;;;;;20.33;40.48;99707.31;5107352;27;20019;-68
2022/01/04 10:18:23;;;;;;;6.07;2.33;;;;;;;18.34;44.46;99707.63;5119261;27;20062;-68
2022/01/04 10:20:58;;;;;;;11.50;2.40;;;;;;;19.67;41.66;99699.31;5129327;27;20043;-68
2022/01/04 10:23:25;;;;;;;13.27;2.23;;;;;;;20.34;40.56;99701.91;5114768;27;20042;-68
2022/01/04 10:25:52;;;;;;;10.60;2.77;;;;;;;20.68;40.23;99706.72;5102180;28;20066;-68
2022/01/04 10:28:35;;;;;;;6.00;2.10;;;;;;;19.19;43.06;99698.91;5105445;27;20035;-68
2022/01/04 10:31:04;;;;;;;10.70;2.93;;;;;;;19.46;42.43;99694.47;5114999;27;20122;-68
2022/01/04 10:33:31;;;;;;;11.33;2.60;;;;;;;19.78;42.49;99691.53;5106606;27;20027;-68
2022/01/04 10:35:58;;;;;;;12.23;3.20;;;;;;;19.95;41.93;99693.06;5119354;27;20057;-68
2022/01/04 10:38:27;;;;;;;15.30;2.77;;;;;;;20.00;41.40;99692.75;5097286;27;20128;-68
2022/01/04 10:41:00;;;;;;;17.67;2.93;;;;;;;20.09;40.99;99694.78;5130303;27;20057;-68
2022/01/04 10:43:29;;;;;;;20.60;3.37;;;;;;;19.93;41.25;99700.25;5132275;27;20019;-68
2022/01/04 10:45:55;;;;;;;17.53;3.57;;;;;;;20.39;39.79;99691.00;5133364;27;20490;-68
2022/01/04 10:48:25;;;;;;;16.93;2.50;;;;;;;20.37;40.48;99684.94;5113631;27;20094;-68
2022/01/04 10:51:06;;;;;;;15.90;2.67;;;;;;;20.23;40.39;99683.22;5109076;27;20042;-68
2022/01/04 10:53:38;;;;;;;15.77;3.07;;;;;;;20.80;39.28;99678.44;5132568;27;20030;-68
2022/01/04 10:56:07;;;;;;;12.43;2.85;;;;;;;20.67;38.97;99678.44;5116203;27;20114;-68
2022/01/04 10:58:39;;;;;;;17.50;2.90;;;;;;;20.29;40.17;99690.78;5103448;27;20023;-68
2022/01/04 11:01:07;;;;;;;;;;;;;;;20.63;38.54;99698.19;5120512;27;20101;-68
2022/01/04 11:03:34;;;;;;;10.17;2.30;;;;;;;18.14;43.79;99714.09;5131429;27;19911;-68
2022/01/04 11:06:12;;;;;;;9.50;1.80;;;;;;;19.30;41.61;99714.97;5125058;27;20042;-68
2022/01/04 11:08:39;;;;;;;4.10;1.13;;;;;;;19.28;42.27;99724.81;5113571;27;20099;-68
2022/01/04 11:11:05;;;;;;;3.03;1.23;;;;;;;17.55;44.02;99732.44;5112063;27;20035;-68
2022/01/04 11:13:31;;;;;;;1.97;0.67;;;;;;;17.24;44.32;99720.94;5113881;27;20027;-68
2022/01/04 11:15:56;;;;;;;6.47;0.90;;;;;;;17.95;43.89;99728.38;5113012;27;20088;-68
2022/01/04 11:18:22;;;;;;;4.70;0.43;;;;;;;18.23;43.40;99715.34;5098549;27;20341;-68
2022/01/04 11:20:49;;;;;;;6.73;0.80;;;;;;;18.84;41.31;99720.50;5115948;27;20485;-68
2022/01/04 11:23:15;;;;;;;2.30;0.93;;;;;;;19.32;41.21;99726.31;5095088;27;20019;-68
2022/01/04 11:25:43;;;;;;;2.10;0.73;;;;;;;18.59;41.67;99743.19;5130772;27;20015;-68
2022/01/04 11:28:11;;;;;;;3.50;0.50;;;;;;;17.62;43.32;99744.38;5108811;27;20126;-68
2022/01/04 11:30:46;;;;;;;4.53;0.60;;;;;;;19.39;40.83;99743.53;5113985;27;20469;-68
2022/01/04 11:33:43;;;;;;;2.87;1.60;;;;;;;19.20;40.78;99748.28;5110875;27;20390;-68